Flight Track Log - Related Links

Times and Time Zones

All times are in EDT time to prevent confusion due to time zone crossing. See the N818GM flight status page for this flight to view local times or setup timezone preferences in your user account.

Time Position Orientation Groundspeed Altitude Reporting Facility
EDT Latitude Longitude Course Direction KTS MPH feet Rate Location/Type
Sun 07:54:00 AM 26.4254 -81.8000 North  Level FlightAware Approximate
Sun 07:55:00 AM 26.4716 -81.8005 355° North  Level FlightAware Approximate
Sun 07:56:00 AM 26.5176 -81.8053 355° North  Level FlightAware Approximate
Sun 07:57:00 AM 26.5637 -81.8102 355° North  Level FlightAware Approximate
Sun 07:58:00 AM 26.6097 -81.8150 355° North  Level FlightAware Approximate
Sun 07:59:00 AM 26.6557 -81.8198 355° North  Level FlightAware Approximate
Sun 08:00:00 AM 26.7018 -81.8247 355° North  Level FlightAware Approximate
Sun 08:01:00 AM 26.7478 -81.8295 355° North  Level FlightAware Approximate
Sun 08:02:00 AM 26.7939 -81.8344 355° North  Level FlightAware Approximate
Sun 08:02:55 AM 26.7892 -81.8339 355° North 184 212 8,000  Level Miami Center
Sun 08:03:00 AM 26.8399 -81.8392 355° North  Level FlightAware Approximate
Sun 08:03:55 AM 26.8328 -81.8403 353° North 178 205 8,000  Level Miami Center
Sun 08:04:00 AM 26.8859 -81.8440 355° North  Level FlightAware Approximate
Sun 08:04:55 AM 26.8844 -81.8494 351° North 173 199 8,000  Level Miami Center
Sun 08:05:00 AM 26.9320 -81.8489 355° North  Level FlightAware Approximate
Sun 08:05:55 AM 26.9344 -81.8564 353° North 178 205 8,000  Level Miami Center
Sun 08:06:00 AM 26.9780 -81.8538 355° North  Level FlightAware Approximate
Sun 08:06:55 AM 26.9822 -81.8653 351° North 178 205 8,000  Level Miami Center
Sun 08:07:00 AM 27.0241 -81.8586 355° North  Level FlightAware Approximate
Sun 08:07:55 AM 27.0258 -81.8719 352° North 178 205 8,000  Level Miami Center
Sun 08:08:00 AM 27.0701 -81.8635 355° North  Level FlightAware Approximate
Sun 08:08:55 AM 27.0756 -81.8786 353° North 178 205 8,000  Level Miami Center
Sun 08:09:55 AM 27.1256 -81.8856 353° North 178 205 8,000  Level Miami Center
Sun 08:10:55 AM 27.1731 -81.8944 351° North 178 205 8,000  Level Miami Center
Sun 08:11:55 AM 27.2231 -81.8992 355° North 178 205 8,000  Level Miami Center
Sun 08:12:55 AM 27.2728 -81.9083 351° North 178 205 8,000  Level Miami Center
Sun 08:13:55 AM 27.3206 -81.9172 351° North 178 205 8,000  Level Miami Center
Sun 08:14:55 AM 27.3683 -81.9242 353° North 178 205 8,000  Level Miami Center
Sun 08:15:55 AM 27.4181 -81.9311 353° North 178 205 8,000  Level Miami Center
Sun 08:16:55 AM 27.4658 -81.9403 350° North 178 205 8,000  Level Miami Center
Sun 08:17:55 AM 27.5136 -81.9469 353° North 178 205 8,000  Level Miami Center
Sun 08:18:55 AM 27.5614 -81.9492 358° North 178 205 8,000  Level Miami Center
Sun 08:19:55 AM 27.6114 -81.9583 351° North 178 205 8,000  Level Miami Center
Sun 08:20:55 AM 27.6653 -81.9653 353° North 178 205 8,000  Level Miami Center
Sun 08:21:55 AM 27.7131 -81.9744 350° North 178 205 8,000  Level Miami Center
Sun 08:22:55 AM 27.7606 -81.9814 353° North 178 205 8,000  Level Miami Center
Sun 08:23:55 AM 27.8083 -81.9931 348° North 179 206 8,000 50 Level Miami Center
Sun 08:24:55 AM 27.8539 -81.9997 353° North 179 206 8,100  Climbing Miami Center
Sun 08:25:55 AM 27.9039 -82.0067 353° North 179 206 8,000  Descending Miami Center
Sun 08:26:55 AM 27.9494 -82.0158 350° North 179 206 8,100  Climbing Miami Center
Sun 08:27:55 AM 27.9950 -82.0247 350° North 173 199 8,000 -50 Descending Miami Center
Sun 08:28:55 AM 28.0358 -82.0503 331° Northwest 168 193 8,000 50 Level Miami Center
Sun 08:29:55 AM 28.0764 -82.0781 329° Northwest 168 193 8,100  Climbing Miami Center
Sun 08:31:14 AM 28.1333 -82.1167 329° Northwest 171 197 8,000  Descending Tampa TRACON
Sun 08:32:14 AM 28.1667 -82.1333 336° Northwest 170 196 8,100 50 Climbing Tampa TRACON
Sun 08:33:14 AM 28.2167 -82.1667 330° Northwest 171 197 8,100 -50 Level Tampa TRACON
Sun 08:34:14 AM 28.2500 -82.1833 336° Northwest 172 198 8,000 -50 Descending Tampa TRACON
Sun 08:35:14 AM 28.3000 -82.2167 330° Northwest 171 197 8,000  Level Tampa TRACON
Sun 08:36:14 AM 28.3333 -82.2333 336° Northwest 173 199 8,000 50 Level Tampa TRACON
Sun 08:37:14 AM 28.3833 -82.2667 330° Northwest 170 196 8,100 50 Climbing Tampa TRACON
Sun 08:38:14 AM 28.4167 -82.3000 319° Northwest 171 197 8,100  Level Tampa TRACON
Sun 08:39:14 AM 28.4667 -82.3167 344° North 169 194 8,100  Level Tampa TRACON
Sun 08:40:14 AM 28.5000 -82.3500 319° Northwest 169 194 8,100  Level Tampa TRACON
Sun 08:41:12 AM 28.5433 -82.3750 333° Northwest 168 193 8,100  Level Jacksonville Center
Sun 08:42:26 AM 28.5936 -82.4031 334° Northwest 166 191 8,100  Level Jacksonville Center
Sun 08:43:27 AM 28.6333 -82.4289 330° Northwest 167 192 8,100  Level Jacksonville Center
Sun 08:44:27 AM 28.6750 -82.4547 331° Northwest 168 193 8,100  Level Jacksonville Center
Sun 08:45:22 AM 28.7128 -82.4806 329° Northwest 167 192 8,100  Level Jacksonville Center
Sun 08:46:23 AM 28.7503 -82.5089 326° Northwest 170 196 8,100 -49 Level Jacksonville Center
Sun 08:47:24 AM 28.7861 -82.5492 315° West 173 199 8,000 -49 Descending Jacksonville Center
Sun 08:48:25 AM 28.8217 -82.5844 319° Northwest 167 192 8,000  Level Jacksonville Center
Sun 08:49:26 AM 28.8531 -82.6222 313° West 166 191 8,000 49 Level Jacksonville Center
Sun 08:50:27 AM 28.8886 -82.6625 315° West 170 196 8,100 44 Climbing Jacksonville Center
Sun 08:51:41 AM 28.9344 -82.7075 319° Northwest 167 192 8,100  Level Jacksonville Center
Sun 08:52:28 AM 28.9575 -82.7336 315° West 169 194 8,100  Level Jacksonville Center
Sun 08:53:29 AM 28.9908 -82.7739 313° West 170 196 8,100  Level Jacksonville Center
Sun 08:54:41 AM 29.0328 -82.8167 318° Northwest 176 203 8,100 -45 Level Jacksonville Center
Sun 08:55:41 AM 29.0661 -82.8544 315° West 176 203 8,000 -50 Descending Jacksonville Center
Sun 08:56:41 AM 29.1017 -82.8925 317° Northwest 171 197 8,000  Level Jacksonville Center
Sun 08:57:41 AM 29.1350 -82.9306 315° West 171 197 8,000  Level Jacksonville Center
Sun 08:58:41 AM 29.1706 -82.9686 317° Northwest 171 197 8,000  Level Jacksonville Center
Sun 08:59:41 AM 29.2017 -83.0044 315° West 171 197 8,000 50 Level Jacksonville Center
Sun 09:00:41 AM 29.2372 -83.0425 317° Northwest 171 197 8,100 50 Climbing Jacksonville Center
Sun 09:01:41 AM 29.2706 -83.0831 313° West 171 197 8,100  Level Jacksonville Center
Sun 09:02:41 AM 29.3058 -83.1211 317° Northwest 171 197 8,100  Level Jacksonville Center
Sun 09:03:41 AM 29.3392 -83.1617 313° West 171 197 8,100  Level Jacksonville Center
Sun 09:04:41 AM 29.3747 -83.2000 317° Northwest 171 197 8,100  Level Jacksonville Center
Sun 09:05:41 AM 29.4100 -83.2383 317° Northwest 171 197 8,100  Level Jacksonville Center
Sun 09:06:41 AM 29.4456 -83.2764 317° Northwest 171 197 8,100  Level Jacksonville Center
Sun 09:07:41 AM 29.4786 -83.3172 313° West 171 197 8,100  Level Jacksonville Center
Sun 09:08:41 AM 29.5161 -83.3556 318° Northwest 171 197 8,100  Level Jacksonville Center
Sun 09:09:41 AM 29.5494 -83.3939 315° West 171 197 8,100  Level Jacksonville Center
Sun 09:10:41 AM 29.5847 -83.4347 315° West 171 197 8,100  Level Jacksonville Center
Sun 09:11:41 AM 29.6200 -83.4756 315° West 171 197 8,100  Level Jacksonville Center
Sun 09:12:41 AM 29.6575 -83.5139 318° Northwest 171 197 8,100  Level Jacksonville Center
Sun 09:13:41 AM 29.6928 -83.5547 315° West 171 197 8,100  Level Jacksonville Center
Sun 09:14:41 AM 29.7281 -83.5933 316° Northwest 171 197 8,100  Level Jacksonville Center
Sun 09:15:41 AM 29.7592 -83.6294 315° West 171 197 8,100 -250 Level Jacksonville Center
Sun 09:16:41 AM 29.7964 -83.6681 318° Northwest 171 197 7,600 -450 Descending Jacksonville Center
Sun 09:17:41 AM 29.8297 -83.7186 307° West 178 205 7,200 -450 Descending Jacksonville Center
Sun 09:18:41 AM 29.8628 -83.7667 308° West 190 219 6,700 -500 Descending Jacksonville Center
Sun 09:19:41 AM 29.8978 -83.8103 313° West 190 219 6,200 -450 Descending Jacksonville Center
Sun 09:20:41 AM 29.9247 -83.8561 304° West 185 213 5,800 -450 Descending Jacksonville Center
Sun 09:21:41 AM 29.9450 -83.9089 294° West 179 206 5,300 -500 Descending Jacksonville Center
Sun 09:22:41 AM 29.9656 -83.9642 293° West 179 206 4,800 -550 Descending Jacksonville Center
Sun 09:23:41 AM 29.9881 -84.0150 297° West 179 206 4,200 -600 Descending Jacksonville Center
Sun 09:25:00 AM 30.0445 -84.0395 339° North  Level FlightAware Approximate
Sun 09:32:00 AM 30.2994 -84.2645 313° West  Level Estimated
Sun 09:33:00 AM 30.3358 -84.2967 311° West  Level Estimated
Sun 09:34:00 AM 30.3687 -84.3336 316° Northwest  Level FlightAware Approximate
Sun 09:35:00 AM 30.3833 -84.3500 311° West  Level FlightAware Approximate
Sun 09:36:00 AM 30.3967 -84.3509 311° West  Level Estimated
Sun 09:37:00 AM 30.3967 -84.3509 311° West  Level Estimated
Sun 09:38:00 AM 30.3967 -84.3509 311° West  Level Estimated
Sun 09:39:00 AM 30.3967 -84.3509 311° West  Level Estimated
Sun 09:40:00 AM 30.3967 -84.3509 311° West  Level Estimated
Sun 09:41:00 AM 30.3967 -84.3509 311° West  Level Estimated
Sun 09:42:00 AM 30.3967 -84.3509 311° West  Level Estimated
Sun 09:43:00 AM 30.3967 -84.3509 311° West  Level Estimated
Sun 09:44:00 AM 30.3967 -84.3509 311° West  Level Estimated
Sun 09:45:00 AM 30.3967 -84.3509 311° West  Level Estimated
Sun 09:46:00 AM 30.3967 -84.3509 311° West  Level Estimated

Login

Don't have an account? Register now (free) for customized features, flight alerts, and more!